Time;durP1;ratioP1;P1;durP2;ratioP2;P2;SDS_P1;SDS_P2;PMS_P1;PMS_P2;Temp;Humidity;BMP_temperature;BMP_pressure;BME280_temperature;BME280_humidity;BME280_pressure;Samples;Min_cycle;Max_cycle;Signal;HPM_P1;HPM_P2
2021/08/16 00:00:08;;;;;;;6.65;5.25;;;;;;;;;;2616370;54;20045;-60
2021/08/16 00:02:34;;;;;;;4.95;4.32;;;;;;;;;;2616229;54;20018;-60
2021/08/16 00:04:59;;;;;;;7.75;5.65;;;;;;;;;;2616683;39;20347;-60
2021/08/16 00:07:25;;;;;;;4.07;3.60;;;;;;;;;;2616159;54;20122;-60
2021/08/16 00:09:50;;;;;;;4.93;4.50;;;;;;;;;;2616149;54;20030;-61
2021/08/16 00:12:16;;;;;;;5.30;4.75;;;;;;;;;;2615818;54;20029;-60
2021/08/16 00:14:41;;;;;;;4.63;4.22;;;;;;;;;;2616062;54;20050;-60
2021/08/16 00:17:07;;;;;;;5.72;5.20;;;;;;;;;;2616882;39;20487;-61
2021/08/16 00:19:32;;;;;;;5.07;4.68;;;;;;;;;;2615995;54;20027;-60
2021/08/16 00:21:58;;;;;;;9.15;4.88;;;;;;;;;;2616130;54;20019;-61
2021/08/16 00:24:24;;;;;;;4.95;4.50;;;;;;;;;;2616216;54;20011;-61
2021/08/16 00:26:50;;;;;;;5.13;4.63;;;;;;;;;;2616173;54;20003;-60
2021/08/16 00:29:16;;;;;;;5.00;4.55;;;;;;;;;;2616357;54;20049;-60
2021/08/16 00:31:42;;;;;;;5.00;4.50;;;;;;;;;;2616437;54;20025;-59
2021/08/16 00:34:07;;;;;;;5.85;5.35;;;;;;;;;;2616313;54;20014;-60
2021/08/16 00:36:33;;;;;;;4.15;3.75;;;;;;;;;;2616193;54;20024;-60
2021/08/16 00:38:58;;;;;;;4.95;4.55;;;;;;;;;;2616172;54;20035;-60
2021/08/16 00:41:23;;;;;;;6.13;5.05;;;;;;;;;;2616155;54;20003;-60
2021/08/16 00:43:50;;;;;;;3.72;3.35;;;;;;;;;;2616342;54;20496;-59
2021/08/16 00:46:16;;;;;;;6.03;4.03;;;;;;;;;;2615892;54;20642;-60
2021/08/16 00:48:41;;;;;;;4.28;3.78;;;;;;;;;;2616254;54;20042;-59
2021/08/16 00:51:07;;;;;;;7.00;3.95;;;;;;;;;;2616249;54;20015;-59
2021/08/16 00:53:34;;;;;;;5.68;4.13;;;;;;;;;;2616137;39;20362;-60
2021/08/16 00:56:00;;;;;;;5.35;4.75;;;;;;;;;;2616121;46;20061;-60
2021/08/16 00:58:26;;;;;;;4.18;3.63;;;;;;;;;;2615995;54;20166;-60
2021/08/16 01:00:57;;;;;;;3.75;3.33;;;;;;;;;;2615714;54;20014;-60
2021/08/16 01:03:24;;;;;;;4.35;3.92;;;;;;;;;;2616238;54;20011;-59
2021/08/16 01:05:49;;;;;;;4.22;3.83;;;;;;;;;;2615808;54;20023;-61
2021/08/16 01:08:15;;;;;;;5.00;4.28;;;;;;;;;;2616564;54;20579;-61
2021/08/16 01:10:40;;;;;;;4.30;3.90;;;;;;;;;;2615543;54;20018;-61
2021/08/16 01:13:06;;;;;;;4.93;3.47;;;;;;;;;;2616413;54;20006;-61
2021/08/16 01:15:33;;;;;;;4.80;3.47;;;;;;;;;;2615851;54;20505;-61
2021/08/16 01:17:59;;;;;;;3.85;3.20;;;;;;;;;;2616244;54;20073;-61
2021/08/16 01:20:24;;;;;;;4.05;3.60;;;;;;;;;;2616152;54;20014;-61
2021/08/16 01:22:49;;;;;;;6.03;3.00;;;;;;;;;;2616112;54;20018;-61
2021/08/16 01:25:15;;;;;;;4.35;3.10;;;;;;;;;;2616070;54;20030;-61
2021/08/16 01:27:41;;;;;;;4.00;3.60;;;;;;;;;;2616096;54;20049;-61
2021/08/16 01:30:13;;;;;;;3.85;3.45;;;;;;;;;;2616201;54;20018;-59
2021/08/16 01:32:40;;;;;;;3.72;3.30;;;;;;;;;;2616157;54;20491;-59
2021/08/16 01:35:07;;;;;;;4.95;3.25;;;;;;;;;;2615698;54;20030;-60
2021/08/16 01:37:32;;;;;;;4.10;3.67;;;;;;;;;;2616038;54;21053;-59
2021/08/16 01:39:57;;;;;;;4.28;3.72;;;;;;;;;;2616157;54;20007;-60
2021/08/16 01:42:23;;;;;;;4.07;3.10;;;;;;;;;;2615760;54;20046;-59
2021/08/16 01:44:48;;;;;;;4.18;3.50;;;;;;;;;;2616211;54;20477;-60
2021/08/16 01:47:14;;;;;;;3.80;2.75;;;;;;;;;;2616093;54;20007;-60
2021/08/16 01:49:39;;;;;;;3.75;3.38;;;;;;;;;;2615707;54;20057;-60
2021/08/16 01:52:05;;;;;;;4.05;3.30;;;;;;;;;;2616203;54;20508;-60
2021/08/16 01:54:30;;;;;;;3.88;3.20;;;;;;;;;;2615993;54;20117;-60
2021/08/16 01:56:55;;;;;;;3.78;3.05;;;;;;;;;;2615026;54;20984;-59
2021/08/16 01:59:21;;;;;;;4.05;3.45;;;;;;;;;;2615789;54;20042;-59
2021/08/16 02:01:46;;;;;;;3.67;3.13;;;;;;;;;;2615981;54;20014;-59
2021/08/16 02:04:11;;;;;;;4.57;3.42;;;;;;;;;;2616116;54;20015;-59
2021/08/16 02:06:37;;;;;;;4.97;3.45;;;;;;;;;;2616429;31;20426;-59
2021/08/16 02:09:03;;;;;;;3.40;3.10;;;;;;;;;;2616398;39;20372;-59
2021/08/16 02:11:28;;;;;;;4.68;3.53;;;;;;;;;;2615961;54;20481;-59
2021/08/16 02:13:53;;;;;;;3.83;3.42;;;;;;;;;;2616135;39;20299;-61
2021/08/16 02:16:19;;;;;;;3.88;3.15;;;;;;;;;;2616100;54;20024;-61
2021/08/16 02:18:44;;;;;;;8.27;3.85;;;;;;;;;;2615670;54;20026;-61
2021/08/16 02:21:10;;;;;;;4.93;3.25;;;;;;;;;;2615540;54;20007;-61
2021/08/16 02:23:35;;;;;;;3.83;3.20;;;;;;;;;;2614649;54;20109;-61
2021/08/16 02:26:01;;;;;;;4.43;3.35;;;;;;;;;;2615635;54;20011;-61
2021/08/16 02:28:26;;;;;;;4.20;3.80;;;;;;;;;;2615749;54;20847;-61
2021/08/16 02:30:52;;;;;;;5.63;3.47;;;;;;;;;;2615380;54;20118;-62
2021/08/16 02:33:17;;;;;;;5.22;3.83;;;;;;;;;;2615799;54;20114;-62
2021/08/16 02:35:43;;;;;;;4.43;4.00;;;;;;;;;;2615379;54;20449;-62
2021/08/16 02:38:10;;;;;;;3.55;3.10;;;;;;;;;;2615265;54;20698;-62
2021/08/16 02:40:36;;;;;;;7.45;4.05;;;;;;;;;;2615472;54;20504;-61
2021/08/16 02:43:02;;;;;;;3.80;3.30;;;;;;;;;;2615565;54;20133;-61
2021/08/16 02:45:28;;;;;;;4.10;3.35;;;;;;;;;;2615640;54;20017;-62
2021/08/16 02:47:53;;;;;;;3.47;3.17;;;;;;;;;;2612898;54;20027;-63
2021/08/16 02:50:19;;;;;;;3.75;3.20;;;;;;;;;;2614918;54;20039;-62
2021/08/16 02:52:44;;;;;;;4.63;4.18;;;;;;;;;;2614144;54;20026;-61
2021/08/16 02:55:10;;;;;;;3.63;3.33;;;;;;;;;;2612709;54;20023;-61
2021/08/16 02:57:36;;;;;;;3.72;3.38;;;;;;;;;;2614126;54;20180;-61
2021/08/16 03:00:04;;;;;;;6.05;3.72;;;;;;;;;;2614286;54;20079;-63
2021/08/16 03:02:29;;;;;;;4.65;4.13;;;;;;;;;;2613454;54;20023;-62
2021/08/16 03:04:54;;;;;;;4.22;3.83;;;;;;;;;;2613525;39;20405;-62
2021/08/16 03:07:20;;;;;;;7.38;4.10;;;;;;;;;;2615243;54;20019;-62
2021/08/16 03:09:45;;;;;;;3.92;3.53;;;;;;;;;;2615134;54;20129;-62
2021/08/16 03:12:11;;;;;;;5.18;4.05;;;;;;;;;;2615466;54;20011;-62
2021/08/16 03:14:37;;;;;;;4.07;3.67;;;;;;;;;;2615846;31;20578;-62
2021/08/16 03:17:03;;;;;;;3.92;3.53;;;;;;;;;;2615016;54;20011;-62
2021/08/16 03:19:28;;;;;;;3.47;3.17;;;;;;;;;;2615585;39;20504;-62
2021/08/16 03:21:54;;;;;;;5.03;4.28;;;;;;;;;;2615151;54;20018;-62
2021/08/16 03:24:19;;;;;;;4.00;3.60;;;;;;;;;;2614651;54;20150;-62
2021/08/16 03:26:45;;;;;;;4.15;3.75;;;;;;;;;;2614726;54;20026;-62
2021/08/16 03:29:11;;;;;;;5.63;4.20;;;;;;;;;;2615202;54;20030;-62
2021/08/16 03:31:36;;;;;;;5.93;4.68;;;;;;;;;;2615253;54;20134;-62
2021/08/16 03:34:02;;;;;;;5.97;4.55;;;;;;;;;;2613653;54;20029;-61
2021/08/16 03:36:27;;;;;;;3.85;3.25;;;;;;;;;;2614395;54;20038;-62
2021/08/16 03:38:53;;;;;;;4.72;4.03;;;;;;;;;;2614957;54;20018;-62
2021/08/16 03:41:18;;;;;;;3.88;3.47;;;;;;;;;;2614078;54;20010;-62
2021/08/16 03:43:44;;;;;;;4.15;3.75;;;;;;;;;;2614815;54;20026;-61
2021/08/16 03:46:10;;;;;;;4.93;3.70;;;;;;;;;;2615144;54;20026;-62
2021/08/16 03:48:35;;;;;;;3.97;3.60;;;;;;;;;;2614222;47;20022;-61
2021/08/16 03:51:01;;;;;;;3.92;3.45;;;;;;;;;;2615151;54;20042;-62
2021/08/16 03:53:26;;;;;;;3.85;3.45;;;;;;;;;;2615167;39;20480;-62
2021/08/16 03:55:52;;;;;;;5.80;4.13;;;;;;;;;;2614651;54;20042;-62
2021/08/16 03:58:17;;;;;;;5.43;2.88;;;;;;;;;;2614219;54;20018;-63
2021/08/16 04:00:42;;;;;;;2.97;2.28;;;;;;;;;;2615023;54;20014;-62
2021/08/16 04:03:10;;;;;;;3.75;2.95;;;;;;;;;;2614807;54;20162;-62
2021/08/16 04:05:36;;;;;;;4.88;2.10;;;;;;;;;;2614407;31;20427;-62
2021/08/16 04:08:01;;;;;;;3.75;3.03;;;;;;;;;;2614991;54;20015;-62
2021/08/16 04:10:27;;;;;;;4.05;2.95;;;;;;;;;;2614140;54;20025;-62
2021/08/16 04:12:52;;;;;;;3.78;2.28;;;;;;;;;;2615144;54;20018;-62
2021/08/16 04:15:21;;;;;;;2.58;1.98;;;;;;;;;;2614638;54;20058;-62
2021/08/16 04:17:47;;;;;;;4.18;3.22;;;;;;;;;;2614857;54;20025;-62
2021/08/16 04:20:13;;;;;;;3.47;2.65;;;;;;;;;;2615057;54;20014;-62
2021/08/16 04:22:39;;;;;;;2.80;1.90;;;;;;;;;;2614939;54;20010;-62
2021/08/16 04:25:07;;;;;;;2.08;1.58;;;;;;;;;;2614300;54;20011;-62
2021/08/16 04:27:33;;;;;;;1.70;1.20;;;;;;;;;;2612329;54;20045;-62
2021/08/16 04:29:59;;;;;;;2.55;1.65;;;;;;;;;;2613999;54;20011;-62
2021/08/16 04:32:25;;;;;;;2.20;1.48;;;;;;;;;;2614884;54;20011;-62
2021/08/16 04:34:52;;;;;;;2.78;1.80;;;;;;;;;;2614710;54;20037;-62
2021/08/16 04:37:19;;;;;;;2.88;1.60;;;;;;;;;;2615025;54;20766;-62
2021/08/16 04:39:44;;;;;;;2.67;1.48;;;;;;;;;;2615046;54;20021;-62
2021/08/16 04:42:09;;;;;;;2.17;1.42;;;;;;;;;;2614972;54;20010;-62
2021/08/16 04:44:35;;;;;;;6.95;2.47;;;;;;;;;;2614456;54;20022;-60
2021/08/16 04:47:00;;;;;;;3.33;2.05;;;;;;;;;;2614637;54;20019;-61
2021/08/16 04:49:28;;;;;;;3.15;2.47;;;;;;;;;;2614836;54;20014;-61
2021/08/16 04:51:53;;;;;;;2.80;1.88;;;;;;;;;;2615491;39;20188;-61
2021/08/16 04:54:19;;;;;;;2.95;2.08;;;;;;;;;;2614404;54;20018;-61
2021/08/16 04:56:45;;;;;;;3.10;2.15;;;;;;;;;;2614393;39;20784;-61
2021/08/16 04:59:11;;;;;;;2.42;1.73;;;;;;;;;;2614924;39;20326;-61
2021/08/16 05:01:37;;;;;;;2.70;2.10;;;;;;;;;;2614581;54;20034;-61
2021/08/16 05:04:04;;;;;;;4.90;2.88;;;;;;;;;;2614562;54;20015;-61
2021/08/16 05:06:32;;;;;;;3.00;2.15;;;;;;;;;;2613374;54;20126;-61
2021/08/16 05:09:03;;;;;;;3.72;2.78;;;;;;;;;;2614115;54;20022;-61
2021/08/16 05:11:30;;;;;;;3.20;2.00;;;;;;;;;;2614797;54;20027;-61
2021/08/16 05:13:56;;;;;;;1.98;1.40;;;;;;;;;;2615564;39;20472;-61
2021/08/16 05:16:27;;;;;;;2.45;1.83;;;;;;;;;;2614194;54;20038;-61
2021/08/16 05:18:53;;;;;;;4.57;1.73;;;;;;;;;;2613909;54;20023;-61
2021/08/16 05:21:20;;;;;;;1.52;1.05;;;;;;;;;;2615491;31;20493;-61
2021/08/16 05:23:46;;;;;;;2.80;1.60;;;;;;;;;;2614604;54;20013;-62
2021/08/16 05:26:11;;;;;;;2.40;1.55;;;;;;;;;;2614929;54;20046;-61
2021/08/16 05:28:37;;;;;;;2.10;1.40;;;;;;;;;;2614225;54;20027;-61
2021/08/16 05:31:02;;;;;;;1.40;0.98;;;;;;;;;;2615050;54;20021;-61
2021/08/16 05:33:28;;;;;;;1.70;1.30;;;;;;;;;;2614705;54;20023;-61
2021/08/16 05:35:53;;;;;;;2.72;1.83;;;;;;;;;;2614808;54;20015;-62
2021/08/16 05:38:19;;;;;;;3.78;1.80;;;;;;;;;;2614629;54;20479;-62
2021/08/16 05:40:44;;;;;;;2.42;1.85;;;;;;;;;;2614605;47;20010;-62
2021/08/16 05:43:10;;;;;;;2.13;1.38;;;;;;;;;;2614829;54;20022;-60
2021/08/16 05:45:35;;;;;;;2.03;1.52;;;;;;;;;;2614751;54;20030;-60
2021/08/16 05:48:01;;;;;;;3.33;1.58;;;;;;;;;;2614336;54;20046;-60
2021/08/16 05:50:26;;;;;;;1.58;1.20;;;;;;;;;;2614682;54;20125;-62
2021/08/16 05:52:53;;;;;;;2.33;1.45;;;;;;;;;;2614320;54;20046;-63
2021/08/16 05:55:19;;;;;;;3.08;1.52;;;;;;;;;;2614283;54;20030;-63
2021/08/16 05:57:45;;;;;;;2.42;1.70;;;;;;;;;;2614595;54;20118;-62
2021/08/16 06:00:12;;;;;;;1.73;1.33;;;;;;;;;;2614562;54;20038;-62
2021/08/16 06:02:38;;;;;;;1.63;1.10;;;;;;;;;;2614249;54;20019;-62
2021/08/16 06:05:06;;;;;;;2.40;1.33;;;;;;;;;;2613630;54;20030;-62
2021/08/16 06:07:31;;;;;;;1.35;0.98;;;;;;;;;;2612972;54;20050;-62
2021/08/16 06:09:57;;;;;;;2.72;1.55;;;;;;;;;;2614670;54;20022;-62
2021/08/16 06:12:22;;;;;;;2.20;1.58;;;;;;;;;;2613832;54;20034;-61
2021/08/16 06:14:49;;;;;;;1.63;1.00;;;;;;;;;;2614852;54;20024;-62
2021/08/16 06:17:14;;;;;;;2.65;1.45;;;;;;;;;;2614256;54;20017;-61
2021/08/16 06:19:39;;;;;;;1.60;1.20;;;;;;;;;;2614475;54;20109;-62
2021/08/16 06:22:05;;;;;;;2.17;1.20;;;;;;;;;;2614222;54;20109;-61
2021/08/16 06:24:33;;;;;;;1.35;0.90;;;;;;;;;;2613325;54;20165;-61
2021/08/16 06:26:58;;;;;;;1.52;1.13;;;;;;;;;;2614427;54;20022;-62
2021/08/16 06:29:24;;;;;;;2.00;1.33;;;;;;;;;;2614564;54;20022;-62
2021/08/16 06:31:49;;;;;;;4.03;1.55;;;;;;;;;;2614418;47;20022;-62
2021/08/16 06:34:15;;;;;;;1.30;1.02;;;;;;;;;;2614679;54;20098;-62
2021/08/16 06:36:40;;;;;;;2.00;1.40;;;;;;;;;;2614630;47;20666;-61
2021/08/16 06:39:29;;;;;;;2.05;1.30;;;;;;;;;;2615000;39;20473;-61
2021/08/16 06:41:55;;;;;;;1.10;0.88;;;;;;;;;;2614903;47;20029;-62
2021/08/16 06:44:23;;;;;;;2.20;1.50;;;;;;;;;;2614929;39;20381;-61
2021/08/16 06:46:49;;;;;;;1.27;0.95;;;;;;;;;;2614574;54;20010;-62
2021/08/16 06:49:14;;;;;;;1.65;1.20;;;;;;;;;;2613325;39;20880;-62
2021/08/16 06:51:41;;;;;;;1.38;1.00;;;;;;;;;;2613735;54;20018;-61
2021/08/16 06:54:06;;;;;;;2.83;1.58;;;;;;;;;;2614302;54;20034;-62
2021/08/16 06:56:32;;;;;;;1.05;0.85;;;;;;;;;;2613994;54;20036;-61
2021/08/16 06:58:57;;;;;;;1.70;1.13;;;;;;;;;;2614331;54;20049;-61
2021/08/16 07:01:25;;;;;;;1.50;1.15;;;;;;;;;;2613603;54;20614;-61
2021/08/16 07:03:52;;;;;;;2.50;1.48;;;;;;;;;;2614299;54;20045;-61
2021/08/16 07:06:17;;;;;;;1.63;1.20;;;;;;;;;;2613624;39;20582;-62
2021/08/16 07:08:42;;;;;;;2.80;1.65;;;;;;;;;;2613123;54;20025;-61
2021/08/16 07:11:08;;;;;;;3.45;1.42;;;;;;;;;;2614644;39;20552;-61
2021/08/16 07:13:33;;;;;;;2.40;1.38;;;;;;;;;;2613343;54;20122;-61
2021/08/16 07:15:59;;;;;;;13.50;1.83;;;;;;;;;;2614394;54;20158;-61
2021/08/16 07:18:24;;;;;;;1.50;1.10;;;;;;;;;;2614465;54;20014;-60
2021/08/16 07:20:50;;;;;;;1.90;1.40;;;;;;;;;;2614313;54;20018;-60
2021/08/16 07:23:15;;;;;;;1.48;1.08;;;;;;;;;;2614497;39;20375;-61
2021/08/16 07:25:41;;;;;;;1.98;1.30;;;;;;;;;;2614287;47;20011;-60
2021/08/16 07:28:06;;;;;;;2.40;1.65;;;;;;;;;;2614787;31;20477;-60
2021/08/16 07:30:32;;;;;;;2.90;1.60;;;;;;;;;;2614085;54;20057;-61
2021/08/16 07:32:58;;;;;;;1.60;1.20;;;;;;;;;;2613954;47;20394;-61
2021/08/16 07:35:23;;;;;;;1.42;1.08;;;;;;;;;;2614024;54;20037;-61
2021/08/16 07:37:49;;;;;;;4.75;2.20;;;;;;;;;;2614096;54;20036;-61
2021/08/16 07:40:15;;;;;;;3.35;1.80;;;;;;;;;;2614057;54;20025;-61
2021/08/16 07:42:40;;;;;;;1.80;1.30;;;;;;;;;;2614858;54;20057;-60
2021/08/16 07:45:08;;;;;;;1.88;1.40;;;;;;;;;;2615006;54;20027;-61
2021/08/16 07:47:34;;;;;;;3.20;1.70;;;;;;;;;;2614963;54;20014;-62
2021/08/16 07:49:59;;;;;;;1.42;1.10;;;;;;;;;;2614687;54;20014;-61
2021/08/16 07:52:25;;;;;;;2.55;1.92;;;;;;;;;;2614753;54;20046;-61
2021/08/16 07:54:54;;;;;;;2.20;1.63;;;;;;;;;;2615117;54;20028;-62
2021/08/16 07:57:20;;;;;;;1.93;1.43;;;;;;;;;;2615013;54;20018;-61
2021/08/16 07:59:45;;;;;;;2.15;1.58;;;;;;;;;;2614937;54;20166;-62
2021/08/16 08:02:10;;;;;;;2.03;1.38;;;;;;;;;;2615120;54;20026;-62
2021/08/16 08:04:36;;;;;;;3.63;1.60;;;;;;;;;;2615056;54;20019;-61
2021/08/16 08:07:02;;;;;;;1.83;1.33;;;;;;;;;;2614929;54;20022;-62
2021/08/16 08:09:27;;;;;;;1.60;1.20;;;;;;;;;;2613569;54;20026;-62
2021/08/16 08:11:53;;;;;;;2.70;1.83;;;;;;;;;;2614775;54;20026;-62
2021/08/16 08:14:18;;;;;;;2.40;1.80;;;;;;;;;;2615007;54;20019;-62
2021/08/16 08:16:44;;;;;;;2.42;1.75;;;;;;;;;;2614799;54;20015;-62
2021/08/16 08:19:09;;;;;;;1.73;1.42;;;;;;;;;;2615098;54;20030;-62
2021/08/16 08:21:34;;;;;;;2.10;1.58;;;;;;;;;;2615027;54;20021;-62
2021/08/16 08:24:00;;;;;;;1.73;1.20;;;;;;;;;;2615029;54;20011;-62
2021/08/16 08:26:25;;;;;;;1.90;1.30;;;;;;;;;;2615089;54;20038;-63
2021/08/16 08:28:51;;;;;;;9.70;1.60;;;;;;;;;;2614923;54;20022;-62
2021/08/16 08:31:16;;;;;;;2.65;1.98;;;;;;;;;;2614664;54;20014;-63
2021/08/16 08:33:41;;;;;;;1.92;1.40;;;;;;;;;;2614721;54;20030;-62
2021/08/16 08:36:07;;;;;;;1.77;1.30;;;;;;;;;;2614988;54;20031;-63
2021/08/16 08:38:32;;;;;;;1.70;1.20;;;;;;;;;;2615110;54;20099;-61
2021/08/16 08:41:00;;;;;;;1.63;1.20;;;;;;;;;;2615470;54;20015;-61
2021/08/16 08:43:26;;;;;;;1.95;1.38;;;;;;;;;;2614571;54;20096;-61
2021/08/16 08:45:54;;;;;;;2.42;1.90;;;;;;;;;;2615114;54;20017;-62
2021/08/16 08:48:20;;;;;;;2.05;1.45;;;;;;;;;;2615156;54;20014;-62
2021/08/16 08:50:46;;;;;;;2.17;1.67;;;;;;;;;;2614231;54;20022;-63
2021/08/16 08:53:12;;;;;;;4.10;1.83;;;;;;;;;;2614853;54;20865;-62
2021/08/16 08:55:37;;;;;;;2.15;1.70;;;;;;;;;;2614255;54;20018;-63
2021/08/16 08:58:02;;;;;;;1.98;1.67;;;;;;;;;;2615127;54;20011;-62
2021/08/16 09:00:28;;;;;;;2.42;1.48;;;;;;;;;;2614880;54;20053;-62
2021/08/16 09:02:58;;;;;;;2.00;1.55;;;;;;;;;;2614269;54;20038;-63
2021/08/16 09:05:24;;;;;;;2.10;1.75;;;;;;;;;;2614479;54;20015;-61
2021/08/16 09:07:49;;;;;;;2.67;1.77;;;;;;;;;;2614967;54;20129;-62
2021/08/16 09:10:16;;;;;;;1.98;1.52;;;;;;;;;;2612239;54;20022;-62
2021/08/16 09:12:43;;;;;;;2.92;1.88;;;;;;;;;;2614127;54;20127;-62
2021/08/16 09:15:21;;;;;;;1.88;1.33;;;;;;;;;;2614839;54;20057;-62
2021/08/16 09:17:46;;;;;;;1.77;1.42;;;;;;;;;;2615049;54;20026;-63
2021/08/16 09:20:21;;;;;;;2.55;1.92;;;;;;;;;;2612374;54;20034;-62
2021/08/16 09:23:07;;;;;;;1.67;1.30;;;;;;;;;;2614554;54;20011;-62
2021/08/16 09:25:38;;;;;;;3.10;1.70;;;;;;;;;;2614740;54;20117;-62
2021/08/16 09:28:05;;;;;;;1.88;1.55;;;;;;;;;;2613375;54;20060;-62
2021/08/16 09:30:34;;;;;;;2.42;1.60;;;;;;;;;;2611621;54;20010;-61
2021/08/16 09:33:17;;;;;;;2.25;1.65;;;;;;;;;;2613365;54;20149;-62
2021/08/16 09:35:53;;;;;;;2.00;1.58;;;;;;;;;;2613226;54;20026;-62
2021/08/16 09:38:35;;;;;;;1.80;1.40;;;;;;;;;;2614964;54;20029;-62
2021/08/16 09:41:01;;;;;;;2.90;1.83;;;;;;;;;;2614467;54;20042;-61
2021/08/16 09:43:27;;;;;;;2.85;1.77;;;;;;;;;;2614829;47;20020;-62
2021/08/16 09:45:53;;;;;;;2.25;1.75;;;;;;;;;;2614634;54;20017;-62
2021/08/16 09:48:24;;;;;;;2.90;2.13;;;;;;;;;;2614656;39;20374;-62
2021/08/16 09:50:51;;;;;;;2.40;1.52;;;;;;;;;;2614762;54;20049;-61
2021/08/16 09:53:21;;;;;;;2.25;1.65;;;;;;;;;;2615039;54;20018;-61
2021/08/16 09:55:49;;;;;;;2.92;1.70;;;;;;;;;;2614493;54;20868;-62
2021/08/16 09:58:17;;;;;;;3.15;2.28;;;;;;;;;;2614632;54;20062;-62
2021/08/16 10:00:48;;;;;;;2.13;1.77;;;;;;;;;;2613471;54;20683;-62
2021/08/16 10:03:14;;;;;;;2.28;1.77;;;;;;;;;;2614745;54;20107;-62
2021/08/16 10:05:41;;;;;;;2.13;1.80;;;;;;;;;;2614246;54;20042;-62
2021/08/16 10:08:09;;;;;;;2.13;1.73;;;;;;;;;;2613902;54;20181;-62
2021/08/16 10:10:37;;;;;;;6.20;2.08;;;;;;;;;;2612974;54;20018;-61
2021/08/16 10:13:04;;;;;;;2.33;1.80;;;;;;;;;;2614671;39;20598;-61
2021/08/16 10:15:34;;;;;;;2.63;2.08;;;;;;;;;;2614404;54;20014;-61
2021/08/16 10:18:01;;;;;;;2.00;1.58;;;;;;;;;;2614433;54;20034;-61
2021/08/16 10:20:28;;;;;;;2.17;1.70;;;;;;;;;;2613504;54;20041;-61
2021/08/16 10:22:54;;;;;;;3.78;2.15;;;;;;;;;;2614828;54;20050;-61
2021/08/16 10:25:20;;;;;;;4.50;2.47;;;;;;;;;;2615560;54;20026;-61
2021/08/16 10:27:46;;;;;;;3.35;2.17;;;;;;;;;;2614752;54;20121;-61
2021/08/16 10:30:16;;;;;;;2.00;1.55;;;;;;;;;;2614962;54;20015;-61
2021/08/16 10:32:42;;;;;;;2.33;1.90;;;;;;;;;;2615691;54;20118;-60
2021/08/16 10:35:15;;;;;;;2.20;1.70;;;;;;;;;;2616045;54;20495;-61
2021/08/16 10:37:45;;;;;;;2.33;1.65;;;;;;;;;;2615745;54;20017;-59
2021/08/16 10:40:15;;;;;;;;;;;;;;;;;;2615685;54;20154;-61
2021/08/16 10:42:41;;;;;;;2.38;1.63;;;;;;;;;;2615132;39;20580;-61
2021/08/16 10:45:09;;;;;;;1.88;1.38;;;;;;;;;;2615158;39;20357;-61
2021/08/16 10:47:35;;;;;;;2.20;1.73;;;;;;;;;;2615251;54;20019;-61
2021/08/16 10:50:08;;;;;;;4.75;2.35;;;;;;;;;;2614708;54;20022;-61
2021/08/16 10:52:36;;;;;;;2.05;1.60;;;;;;;;;;2615267;54;20481;-61
2021/08/16 10:55:15;;;;;;;2.70;2.08;;;;;;;;;;2615689;39;20650;-61
2021/08/16 10:57:43;;;;;;;3.00;2.40;;;;;;;;;;2615012;54;20054;-60
2021/08/16 11:00:10;;;;;;;2.47;1.88;;;;;;;;;;2616113;39;20483;-61
2021/08/16 11:02:36;;;;;;;2.60;1.90;;;;;;;;;;2615460;54;20034;-61
2021/08/16 11:05:03;;;;;;;3.10;2.13;;;;;;;;;;2615723;54;20010;-59
2021/08/16 11:07:29;;;;;;;2.90;2.20;;;;;;;;;;2615861;54;20034;-60
2021/08/16 11:09:59;;;;;;;3.10;2.35;;;;;;;;;;2615791;54;20003;-61
2021/08/16 11:12:38;;;;;;;3.42;2.88;;;;;;;;;;2615775;54;20007;-61
2021/08/16 11:15:06;;;;;;;2.80;2.35;;;;;;;;;;2615588;54;20023;-62
2021/08/16 11:17:32;;;;;;;4.47;2.45;;;;;;;;;;2615932;54;20029;-61
2021/08/16 11:19:59;;;;;;;3.17;2.38;;;;;;;;;;2616459;54;20015;-61
2021/08/16 11:22:26;;;;;;;3.60;2.65;;;;;;;;;;2616526;54;20037;-60
2021/08/16 11:24:52;;;;;;;3.05;2.40;;;;;;;;;;2616404;54;20052;-61
2021/08/16 11:27:23;;;;;;;2.35;1.92;;;;;;;;;;2616638;54;20018;-61
2021/08/16 11:30:06;;;;;;;5.57;2.72;;;;;;;;;;2615364;54;20022;-60
2021/08/16 11:32:33;;;;;;;4.60;2.22;;;;;;;;;;2615981;54;20102;-62
2021/08/16 11:34:59;;;;;;;3.25;2.30;;;;;;;;;;2616341;54;20010;-60
2021/08/16 11:37:26;;;;;;;2.97;2.42;;;;;;;;;;2616145;54;20043;-60
2021/08/16 11:39:53;;;;;;;4.65;1.80;;;;;;;;;;2616732;39;20384;-60
2021/08/16 11:42:20;;;;;;;2.92;2.47;;;;;;;;;;2616383;54;20061;-60
2021/08/16 11:45:08;;;;;;;2.92;1.70;;;;;;;;;;2616563;54;20020;-60
2021/08/16 11:47:38;;;;;;;2.53;1.88;;;;;;;;;;2615728;54;20026;-60
2021/08/16 11:50:08;;;;;;;;;;;;;;;;;;2616354;54;20053;-60
2021/08/16 11:52:34;;;;;;;2.17;1.55;;;;;;;;;;2615195;54;19986;-60
2021/08/16 11:55:00;;;;;;;3.97;1.95;;;;;;;;;;2616492;54;20806;-59
2021/08/16 11:57:26;;;;;;;2.22;1.50;;;;;;;;;;2616992;39;20397;-58
2021/08/16 11:59:53;;;;;;;1.80;1.25;;;;;;;;;;2616253;54;20022;-60
2021/08/16 12:02:22;;;;;;;2.35;1.58;;;;;;;;;;2616840;39;20444;-60
2021/08/16 12:04:49;;;;;;;2.10;1.50;;;;;;;;;;2616471;54;20027;-60
2021/08/16 12:07:21;;;;;;;2.40;1.80;;;;;;;;;;2614681;54;20073;-59
2021/08/16 12:09:48;;;;;;;3.15;2.30;;;;;;;;;;2615786;47;20029;-59
2021/08/16 12:12:16;;;;;;;2.00;1.63;;;;;;;;;;2615988;54;20006;-60
2021/08/16 12:14:42;;;;;;;2.35;1.63;;;;;;;;;;2615486;54;20013;-61
2021/08/16 12:17:08;;;;;;;2.40;2.00;;;;;;;;;;2614999;54;20113;-59
2021/08/16 12:19:34;;;;;;;2.80;2.08;;;;;;;;;;2616748;39;20455;-60
2021/08/16 12:22:10;;;;;;;2.42;1.88;;;;;;;;;;2616304;54;20022;-60
2021/08/16 12:24:40;;;;;;;3.42;2.40;;;;;;;;;;2614320;54;20035;-60
2021/08/16 12:27:10;;;;;;;2.42;1.88;;;;;;;;;;2615452;54;20018;-60
2021/08/16 12:29:44;;;;;;;2.80;2.05;;;;;;;;;;2615824;39;20401;-60
2021/08/16 12:32:21;;;;;;;2.90;1.73;;;;;;;;;;2615893;54;20070;-60
2021/08/16 12:34:48;;;;;;;1.85;1.38;;;;;;;;;;2615659;54;20026;-60
2021/08/16 12:37:40;;;;;;;3.13;1.83;;;;;;;;;;2616156;54;20507;-60
2021/08/16 12:40:14;;;;;;;2.85;1.63;;;;;;;;;;2615711;54;20026;-59
2021/08/16 12:42:44;;;;;;;2.70;1.90;;;;;;;;;;2615914;54;20017;-60
2021/08/16 12:45:12;;;;;;;;;;;;;;;;;;2615833;54;20050;-59
2021/08/16 12:47:37;;;;;;;2.65;1.85;;;;;;;;;;2616031;54;20026;-61
2021/08/16 12:50:08;;;;;;;2.92;1.80;;;;;;;;;;2616007;54;20011;-60
2021/08/16 12:52:35;;;;;;;2.40;1.85;;;;;;;;;;2615589;54;20110;-59
2021/08/16 12:55:01;;;;;;;2.55;1.80;;;;;;;;;;2616363;54;20015;-61
2021/08/16 12:57:26;;;;;;;2.83;2.33;;;;;;;;;;2616165;54;20050;-61
2021/08/16 12:59:52;;;;;;;2.78;2.10;;;;;;;;;;2616502;54;20010;-60
2021/08/16 13:02:23;;;;;;;2.80;2.42;;;;;;;;;;2616123;54;20018;-62
2021/08/16 13:04:49;;;;;;;5.03;2.53;;;;;;;;;;2614986;39;21436;-61
2021/08/16 13:07:14;;;;;;;3.10;2.53;;;;;;;;;;2615412;54;20023;-61
2021/08/16 13:09:40;;;;;;;3.85;2.83;;;;;;;;;;2615665;54;20049;-61
2021/08/16 13:12:05;;;;;;;2.80;2.08;;;;;;;;;;2615964;54;20011;-60
2021/08/16 13:14:31;;;;;;;2.72;2.35;;;;;;;;;;2611822;47;20061;-68
2021/08/16 13:16:56;;;;;;;3.97;2.72;;;;;;;;;;2616088;47;20058;-67
2021/08/16 13:19:22;;;;;;;2.58;1.80;;;;;;;;;;2616030;54;20508;-68
2021/08/16 13:21:47;;;;;;;2.53;2.00;;;;;;;;;;2615666;54;20053;-67
2021/08/16 13:24:12;;;;;;;2.92;2.10;;;;;;;;;;2616417;39;20687;-60
2021/08/16 13:26:38;;;;;;;2.72;1.95;;;;;;;;;;2615520;54;20505;-60
2021/08/16 13:29:03;;;;;;;2.95;2.15;;;;;;;;;;2616450;39;20381;-60
2021/08/16 13:31:29;;;;;;;2.75;2.33;;;;;;;;;;2615857;54;20838;-60
2021/08/16 13:33:54;;;;;;;5.47;2.60;;;;;;;;;;2616202;54;20018;-60
2021/08/16 13:36:20;;;;;;;2.50;1.80;;;;;;;;;;2616277;54;20564;-59
2021/08/16 13:38:45;;;;;;;2.75;2.20;;;;;;;;;;2615903;54;20049;-60
2021/08/16 13:41:11;;;;;;;3.53;2.05;;;;;;;;;;2616358;39;20326;-60
2021/08/16 13:43:36;;;;;;;2.83;2.38;;;;;;;;;;2616082;54;20499;-59
2021/08/16 13:46:02;;;;;;;2.72;2.15;;;;;;;;;;2616323;39;20364;-60
2021/08/16 13:48:27;;;;;;;2.47;1.95;;;;;;;;;;2616597;39;20801;-60
2021/08/16 13:50:52;;;;;;;2.60;2.20;;;;;;;;;;2615732;54;20030;-60
2021/08/16 13:53:18;;;;;;;3.13;2.05;;;;;;;;;;2616278;54;20010;-61
2021/08/16 13:55:43;;;;;;;3.33;2.10;;;;;;;;;;2615651;54;20026;-60
2021/08/16 13:58:09;;;;;;;4.28;2.80;;;;;;;;;;2615510;54;20014;-60
2021/08/16 14:00:37;;;;;;;2.40;1.90;;;;;;;;;;2616724;39;20399;-67
2021/08/16 14:03:03;;;;;;;2.63;2.15;;;;;;;;;;2615933;39;20808;-67
2021/08/16 14:05:28;;;;;;;2.60;2.15;;;;;;;;;;2616014;47;20011;-66
2021/08/16 14:07:54;;;;;;;3.35;3.05;;;;;;;;;;2616670;39;20427;-66
2021/08/16 14:10:19;;;;;;;2.63;2.22;;;;;;;;;;2615822;54;20019;-66
2021/08/16 14:12:45;;;;;;;3.63;2.47;;;;;;;;;;2615970;54;20082;-66
2021/08/16 14:15:11;;;;;;;3.78;2.50;;;;;;;;;;2616158;54;20168;-67
2021/08/16 14:17:37;;;;;;;3.10;2.67;;;;;;;;;;2616097;54;20010;-66
2021/08/16 14:20:04;;;;;;;2.70;2.20;;;;;;;;;;2616074;54;20030;-66
2021/08/16 14:22:29;;;;;;;2.55;2.15;;;;;;;;;;2615283;54;20477;-66
2021/08/16 14:24:54;;;;;;;2.80;2.30;;;;;;;;;;2616035;54;20018;-66
2021/08/16 14:27:21;;;;;;;2.60;2.05;;;;;;;;;;2615941;54;20018;-65
2021/08/16 14:29:47;;;;;;;2.90;2.08;;;;;;;;;;2616025;47;20010;-66
2021/08/16 14:32:12;;;;;;;4.10;2.53;;;;;;;;;;2615859;54;20049;-66
2021/08/16 14:34:38;;;;;;;2.80;2.45;;;;;;;;;;2615624;54;20034;-65
2021/08/16 14:37:03;;;;;;;2.97;2.67;;;;;;;;;;2616019;54;20475;-65
2021/08/16 14:39:29;;;;;;;2.80;2.47;;;;;;;;;;2615228;54;20031;-65